Time;durP1;ratioP1;P1;durP2;ratioP2;P2;SDS_P1;SDS_P2;PMS_P1;PMS_P2;Temp;Humidity;BMP_temperature;BMP_pressure;BME280_temperature;BME280_humidity;BME280_pressure;Samples;Min_cycle;Max_cycle;Signal;HPM_P1;HPM_P2
2023/11/10 00:00:09;;;;;;;2.63;2.53;;;;;;;;;;5047342;28;20469;-60
2023/11/10 00:02:39;;;;;;;2.60;2.40;;;;;;;;;;5043258;28;20053;-60
2023/11/10 00:05:10;;;;;;;2.70;2.50;;;;;;;;;;5045686;28;20452;-61
2023/11/10 00:07:39;;;;;;;2.38;2.20;;;;;;;;;;5036654;28;20111;-62
2023/11/10 00:10:08;;;;;;;2.55;2.45;;;;;;;;;;5039239;28;20047;-63
2023/11/10 00:12:37;;;;;;;2.05;1.95;;;;;;;;;;5044481;28;20048;-60
2023/11/10 00:15:08;;;;;;;2.40;2.30;;;;;;;;;;5047666;28;20164;-64
2023/11/10 00:17:39;;;;;;;2.30;2.20;;;;;;;;;;5047632;28;20102;-61
2023/11/10 00:20:11;;;;;;;2.38;2.22;;;;;;;;;;5050602;28;20051;-61
2023/11/10 00:22:40;;;;;;;2.30;2.20;;;;;;;;;;5050472;28;20057;-61
2023/11/10 00:25:08;;;;;;;2.33;2.22;;;;;;;;;;5052088;28;20051;-60
2023/11/10 00:27:37;;;;;;;2.10;2.00;;;;;;;;;;5046421;28;20045;-64
2023/11/10 00:30:06;;;;;;;2.03;1.92;;;;;;;;;;5047014;28;20053;-64
2023/11/10 00:32:36;;;;;;;2.17;2.08;;;;;;;;;;5045061;28;20088;-61
2023/11/10 00:35:05;;;;;;;2.30;2.10;;;;;;;;;;5049732;28;20092;-60
2023/11/10 00:37:35;;;;;;;2.22;2.13;;;;;;;;;;5046151;28;20354;-60
2023/11/10 00:40:03;;;;;;;2.50;2.30;;;;;;;;;;5041478;28;20076;-63
2023/11/10 00:42:32;;;;;;;2.53;2.35;;;;;;;;;;5050683;28;20477;-61
2023/11/10 00:44:59;;;;;;;2.60;2.42;;;;;;;;;;5047401;28;20069;-60
2023/11/10 00:47:28;;;;;;;2.35;2.25;;;;;;;;;;5047894;28;20057;-61
2023/11/10 00:49:56;;;;;;;2.20;2.10;;;;;;;;;;5042556;28;20052;-60
2023/11/10 00:52:24;;;;;;;2.20;2.10;;;;;;;;;;5051043;28;20076;-60
2023/11/10 00:54:54;;;;;;;2.70;2.50;;;;;;;;;;5051186;28;20102;-62
2023/11/10 00:57:23;;;;;;;2.15;2.05;;;;;;;;;;5049830;28;20099;-61
2023/11/10 00:59:51;;;;;;;2.15;2.05;;;;;;;;;;5047820;28;20049;-63
2023/11/10 01:02:19;;;;;;;2.20;2.10;;;;;;;;;;5048774;28;20505;-60
2023/11/10 01:04:48;;;;;;;2.15;2.05;;;;;;;;;;5047310;28;20083;-60
2023/11/10 01:07:16;;;;;;;2.47;2.30;;;;;;;;;;5042791;28;20053;-62
2023/11/10 01:09:45;;;;;;;2.40;2.30;;;;;;;;;;5043047;28;20555;-60
2023/11/10 01:12:15;;;;;;;2.42;2.22;;;;;;;;;;5049740;28;20073;-61
2023/11/10 01:14:43;;;;;;;2.30;2.20;;;;;;;;;;5050916;28;20103;-59
2023/11/10 01:17:12;;;;;;;2.58;2.38;;;;;;;;;;5049784;28;20064;-60
2023/11/10 01:19:40;;;;;;;2.30;2.20;;;;;;;;;;5043502;28;20045;-61
2023/11/10 01:22:09;;;;;;;2.33;2.22;;;;;;;;;;5047190;28;20072;-61
2023/11/10 01:24:38;;;;;;;2.58;2.47;;;;;;;;;;5048635;28;20110;-60
2023/11/10 01:27:07;;;;;;;2.63;2.50;;;;;;;;;;5045787;28;20478;-59
2023/11/10 01:29:37;;;;;;;2.55;2.40;;;;;;;;;;5047542;28;20487;-60
2023/11/10 01:32:06;;;;;;;2.97;2.80;;;;;;;;;;5050742;28;20045;-61
2023/11/10 01:34:34;;;;;;;2.58;2.47;;;;;;;;;;5045844;28;20076;-59
2023/11/10 01:37:03;;;;;;;2.60;2.40;;;;;;;;;;5039200;28;20056;-60
2023/11/10 01:39:31;;;;;;;2.22;2.13;;;;;;;;;;5050516;28;20289;-62
2023/11/10 01:41:59;;;;;;;2.67;2.50;;;;;;;;;;5050655;28;20122;-59
2023/11/10 01:44:28;;;;;;;2.90;2.70;;;;;;;;;;5048116;28;20098;-61
2023/11/10 01:46:59;;;;;;;2.20;2.10;;;;;;;;;;5048907;28;20099;-60
2023/11/10 01:49:28;;;;;;;2.47;2.28;;;;;;;;;;5040742;28;20574;-60
2023/11/10 01:51:57;;;;;;;2.22;2.13;;;;;;;;;;5047961;28;20059;-62
2023/11/10 01:54:28;;;;;;;3.75;2.22;;;;;;;;;;5048205;28;20045;-60
2023/11/10 01:56:57;;;;;;;2.20;2.10;;;;;;;;;;5049346;28;20071;-61
2023/11/10 01:59:26;;;;;;;2.58;2.38;;;;;;;;;;5049769;28;20052;-64
2023/11/10 02:01:54;;;;;;;2.15;2.05;;;;;;;;;;5047906;28;20045;-65
2023/11/10 02:04:23;;;;;;;2.38;2.28;;;;;;;;;;5049674;28;20059;-60
2023/11/10 02:06:52;;;;;;;2.40;2.30;;;;;;;;;;5049891;28;20053;-62
2023/11/10 02:09:21;;;;;;;2.22;2.10;;;;;;;;;;5045675;28;20045;-63
2023/11/10 02:11:50;;;;;;;2.25;2.15;;;;;;;;;;5042700;28;20040;-63
2023/11/10 02:14:18;;;;;;;2.22;2.13;;;;;;;;;;5044322;28;20041;-60
2023/11/10 02:16:47;;;;;;;2.40;2.30;;;;;;;;;;5049862;28;20076;-61
2023/11/10 02:19:16;;;;;;;2.38;2.28;;;;;;;;;;5048410;28;20126;-60
2023/11/10 02:21:46;;;;;;;2.10;2.00;;;;;;;;;;5048074;28;20049;-62
2023/11/10 02:24:16;;;;;;;2.53;2.42;;;;;;;;;;5049581;28;20070;-64
2023/11/10 02:26:45;;;;;;;2.58;2.47;;;;;;;;;;5048588;28;20041;-66
2023/11/10 02:29:15;;;;;;;2.42;2.33;;;;;;;;;;5038908;28;20045;-60
2023/11/10 02:31:44;;;;;;;2.53;2.42;;;;;;;;;;5047959;28;20094;-59
2023/11/10 02:34:12;;;;;;;2.50;2.40;;;;;;;;;;5049214;28;20071;-61
2023/11/10 02:36:41;;;;;;;2.30;2.20;;;;;;;;;;5048904;28;20064;-62
2023/11/10 02:39:10;;;;;;;2.85;2.65;;;;;;;;;;5045386;28;20049;-64
2023/11/10 02:41:39;;;;;;;2.65;2.55;;;;;;;;;;5046647;28;20539;-63
2023/11/10 02:44:09;;;;;;;2.92;2.72;;;;;;;;;;5043336;28;20414;-62
2023/11/10 02:46:38;;;;;;;2.30;2.20;;;;;;;;;;5036866;28;20092;-62
2023/11/10 02:49:06;;;;;;;2.60;2.50;;;;;;;;;;5044313;28;20053;-63
2023/11/10 02:51:35;;;;;;;2.40;2.30;;;;;;;;;;5042492;28;20053;-62
2023/11/10 02:54:03;;;;;;;2.63;2.53;;;;;;;;;;5045849;28;20060;-59
2023/11/10 02:56:32;;;;;;;2.65;2.45;;;;;;;;;;5046656;28;20568;-62
2023/11/10 02:59:00;;;;;;;2.97;2.78;;;;;;;;;;5047801;28;20060;-62
2023/11/10 03:01:30;;;;;;;2.83;2.65;;;;;;;;;;5039101;28;20049;-62
2023/11/10 03:03:58;;;;;;;2.70;2.50;;;;;;;;;;5046443;28;20060;-62
2023/11/10 03:06:27;;;;;;;2.55;2.45;;;;;;;;;;5048032;28;20552;-60
2023/11/10 03:08:56;;;;;;;2.90;2.75;;;;;;;;;;5036669;28;20387;-60
2023/11/10 03:11:24;;;;;;;2.70;2.55;;;;;;;;;;5047358;28;20072;-60
2023/11/10 03:13:54;;;;;;;2.40;2.30;;;;;;;;;;5047882;28;20049;-66
2023/11/10 03:16:23;;;;;;;2.53;2.42;;;;;;;;;;5046656;28;20076;-60
2023/11/10 03:18:55;;;;;;;2.50;2.40;;;;;;;;;;5040443;28;20076;-59
2023/11/10 03:21:23;;;;;;;2.75;2.65;;;;;;;;;;5041295;28;20057;-59
2023/11/10 03:23:52;;;;;;;3.00;2.80;;;;;;;;;;5042535;28;20052;-61
2023/11/10 03:26:20;;;;;;;2.67;2.58;;;;;;;;;;5048315;28;20495;-61
2023/11/10 03:28:49;;;;;;;2.50;2.40;;;;;;;;;;5046971;28;20041;-61
2023/11/10 03:31:17;;;;;;;2.70;2.60;;;;;;;;;;5047278;28;20106;-62
2023/11/10 03:33:46;;;;;;;2.83;2.63;;;;;;;;;;5038722;28;20037;-60
2023/11/10 03:36:17;;;;;;;2.63;2.42;;;;;;;;;;5044540;28;20087;-60
2023/11/10 03:38:45;;;;;;;2.40;2.30;;;;;;;;;;5047174;28;20053;-61
2023/11/10 03:41:14;;;;;;;2.65;2.55;;;;;;;;;;5047704;28;20053;-65
2023/11/10 03:43:43;;;;;;;3.75;2.92;;;;;;;;;;5048060;28;20494;-59
2023/11/10 03:46:12;;;;;;;2.42;2.33;;;;;;;;;;5047659;28;20049;-60
2023/11/10 03:48:40;;;;;;;2.30;2.20;;;;;;;;;;5046097;28;20107;-62
2023/11/10 03:51:11;;;;;;;2.63;2.53;;;;;;;;;;5046323;28;20494;-60
2023/11/10 03:53:42;;;;;;;2.80;2.55;;;;;;;;;;5038471;28;20525;-60
2023/11/10 03:56:11;;;;;;;2.60;2.50;;;;;;;;;;5046815;28;20151;-59
2023/11/10 03:58:39;;;;;;;2.80;2.60;;;;;;;;;;5047941;28;20742;-59
2023/11/10 04:01:11;;;;;;;2.70;2.45;;;;;;;;;;5045126;28;20045;-59
2023/11/10 04:03:40;;;;;;;2.67;2.58;;;;;;;;;;5043329;28;20071;-63
2023/11/10 04:06:09;;;;;;;2.60;2.50;;;;;;;;;;5040733;28;20053;-60
2023/11/10 04:08:37;;;;;;;2.53;2.42;;;;;;;;;;5037804;28;20560;-59
2023/11/10 04:11:09;;;;;;;3.15;2.95;;;;;;;;;;5040040;28;20073;-59
2023/11/10 04:13:38;;;;;;;2.45;2.35;;;;;;;;;;5046845;28;20077;-60
2023/11/10 04:16:07;;;;;;;2.75;2.65;;;;;;;;;;5044712;28;20259;-61
2023/11/10 04:18:36;;;;;;;2.20;2.10;;;;;;;;;;5046016;28;20068;-60
2023/11/10 04:21:05;;;;;;;2.50;2.40;;;;;;;;;;5046668;28;20076;-66
2023/11/10 04:23:33;;;;;;;2.78;2.67;;;;;;;;;;5045494;28;20053;-59
2023/11/10 04:26:05;;;;;;;3.10;2.90;;;;;;;;;;5043053;28;20060;-61
2023/11/10 04:28:35;;;;;;;3.03;2.83;;;;;;;;;;5042890;28;20513;-60
2023/11/10 04:31:03;;;;;;;2.63;2.50;;;;;;;;;;5043949;28;20045;-60
2023/11/10 04:33:32;;;;;;;2.60;2.50;;;;;;;;;;5046807;28;20045;-58
2023/11/10 04:36:00;;;;;;;2.78;2.58;;;;;;;;;;5044283;28;20041;-59
2023/11/10 04:38:29;;;;;;;3.55;3.25;;;;;;;;;;5040198;28;20057;-59
2023/11/10 04:40:58;;;;;;;3.08;2.88;;;;;;;;;;5044241;28;20077;-58
2023/11/10 04:43:26;;;;;;;2.67;2.58;;;;;;;;;;5044747;28;20053;-61
2023/11/10 04:45:56;;;;;;;2.88;2.67;;;;;;;;;;5047311;28;20138;-59
2023/11/10 04:48:28;;;;;;;2.80;2.60;;;;;;;;;;5043325;28;20053;-60
2023/11/10 04:50:57;;;;;;;2.75;2.55;;;;;;;;;;5044603;28;20379;-62
2023/11/10 04:53:25;;;;;;;2.70;2.60;;;;;;;;;;5046293;28;20369;-61
2023/11/10 04:55:53;;;;;;;2.67;2.58;;;;;;;;;;5043653;28;20068;-61
2023/11/10 04:58:22;;;;;;;2.70;2.50;;;;;;;;;;5036442;28;20502;-60
2023/11/10 05:00:50;;;;;;;2.42;2.33;;;;;;;;;;5041410;28;20052;-64
2023/11/10 05:03:20;;;;;;;2.53;2.42;;;;;;;;;;5037971;28;20500;-59
2023/11/10 05:05:49;;;;;;;2.75;2.65;;;;;;;;;;5042823;28;20502;-59
2023/11/10 05:08:17;;;;;;;3.22;2.60;;;;;;;;;;5048213;28;20106;-59
2023/11/10 05:10:46;;;;;;;2.67;2.47;;;;;;;;;;5045341;28;20514;-59
2023/11/10 05:13:14;;;;;;;2.67;2.58;;;;;;;;;;5051509;28;20049;-65
2023/11/10 05:15:43;;;;;;;2.35;2.25;;;;;;;;;;5045979;28;20495;-62
2023/11/10 05:18:12;;;;;;;2.67;2.53;;;;;;;;;;5045535;28;20228;-62
2023/11/10 05:20:42;;;;;;;2.60;2.50;;;;;;;;;;5047349;28;20391;-58
2023/11/10 05:23:10;;;;;;;3.10;2.80;;;;;;;;;;5049527;28;20538;-58
2023/11/10 05:25:38;;;;;;;2.88;2.67;;;;;;;;;;5051346;28;20056;-58
2023/11/10 05:28:07;;;;;;;2.50;2.40;;;;;;;;;;5048587;28;20056;-62
2023/11/10 05:30:35;;;;;;;3.88;2.53;;;;;;;;;;5049826;28;20052;-62
2023/11/10 05:33:04;;;;;;;2.78;2.60;;;;;;;;;;5051206;28;20053;-62
2023/11/10 05:35:35;;;;;;;2.60;2.50;;;;;;;;;;5046132;28;20048;-62
2023/11/10 05:38:06;;;;;;;3.03;2.75;;;;;;;;;;5049865;28;20135;-60
2023/11/10 05:40:35;;;;;;;3.17;2.95;;;;;;;;;;5049587;28;20041;-61
2023/11/10 05:43:03;;;;;;;2.78;2.58;;;;;;;;;;5049037;28;20049;-60
2023/11/10 05:45:32;;;;;;;2.80;2.70;;;;;;;;;;5049817;28;20057;-62
2023/11/10 05:48:01;;;;;;;2.60;2.50;;;;;;;;;;5045546;28;20056;-60
2023/11/10 05:50:29;;;;;;;3.30;2.90;;;;;;;;;;5046427;28;20037;-59
2023/11/10 05:52:58;;;;;;;2.95;2.75;;;;;;;;;;5043334;28;20053;-58
2023/11/10 05:55:28;;;;;;;2.60;2.50;;;;;;;;;;5044975;28;20041;-61
2023/11/10 05:57:56;;;;;;;2.85;2.65;;;;;;;;;;5050050;28;20087;-61
2023/11/10 06:00:25;;;;;;;2.85;2.65;;;;;;;;;;5043252;28;20083;-60
2023/11/10 06:02:55;;;;;;;3.17;3.08;;;;;;;;;;5044034;28;20056;-59
2023/11/10 06:05:25;;;;;;;2.55;2.35;;;;;;;;;;5049181;28;20053;-59
2023/11/10 06:07:54;;;;;;;3.45;2.80;;;;;;;;;;5047630;28;20091;-60
2023/11/10 06:10:23;;;;;;;2.72;2.53;;;;;;;;;;5040022;28;20054;-59
2023/11/10 06:12:52;;;;;;;3.00;2.80;;;;;;;;;;5049550;28;20071;-58
2023/11/10 06:15:21;;;;;;;2.92;2.75;;;;;;;;;;5047768;28;20144;-61
2023/11/10 06:17:52;;;;;;;2.65;2.50;;;;;;;;;;5047553;28;20045;-60
2023/11/10 06:20:21;;;;;;;2.50;2.40;;;;;;;;;;5045502;28;20048;-62
2023/11/10 06:22:50;;;;;;;2.50;2.40;;;;;;;;;;5042726;28;20088;-63
2023/11/10 06:25:19;;;;;;;2.90;2.70;;;;;;;;;;5048465;28;20049;-58
2023/11/10 06:27:48;;;;;;;2.42;2.33;;;;;;;;;;5048840;28;20072;-59
2023/11/10 06:30:18;;;;;;;2.78;2.58;;;;;;;;;;5046153;28;20110;-61
2023/11/10 06:32:47;;;;;;;2.60;2.50;;;;;;;;;;5040595;28;20501;-61
2023/11/10 06:35:15;;;;;;;2.45;2.35;;;;;;;;;;5045829;28;20068;-62
2023/11/10 06:37:44;;;;;;;2.63;2.53;;;;;;;;;;5041006;28;20048;-60
2023/11/10 06:40:12;;;;;;;2.42;2.28;;;;;;;;;;5047238;28;20567;-59
2023/11/10 06:42:40;;;;;;;7.32;2.80;;;;;;;;;;5046845;28;20088;-59
2023/11/10 06:45:10;;;;;;;3.00;2.53;;;;;;;;;;5049179;28;20488;-59
2023/11/10 06:47:40;;;;;;;3.33;3.13;;;;;;;;;;5044663;28;20483;-63
2023/11/10 06:50:09;;;;;;;2.47;2.38;;;;;;;;;;5037554;28;20049;-60
2023/11/10 06:52:37;;;;;;;2.33;2.22;;;;;;;;;;5041309;28;20044;-62
2023/11/10 06:55:13;;;;;;;2.33;2.17;;;;;;;;;;5042495;28;20452;-65
2023/11/10 06:57:41;;;;;;;2.22;2.10;;;;;;;;;;5047699;28;20572;-61
2023/11/10 07:00:11;;;;;;;2.97;2.75;;;;;;;;;;5046286;28;20056;-58
2023/11/10 07:02:41;;;;;;;2.58;2.38;;;;;;;;;;5043255;28;20132;-60
2023/11/10 07:05:10;;;;;;;2.88;2.78;;;;;;;;;;5046271;28;20076;-61
2023/11/10 07:07:38;;;;;;;2.45;2.35;;;;;;;;;;5040688;28;20048;-61
2023/11/10 07:10:07;;;;;;;2.25;2.15;;;;;;;;;;5042660;28;20060;-61
2023/11/10 07:12:36;;;;;;;2.22;2.13;;;;;;;;;;5042004;28;20122;-62
2023/11/10 07:15:05;;;;;;;2.67;2.58;;;;;;;;;;5048122;28;20041;-59
2023/11/10 07:17:35;;;;;;;2.10;2.00;;;;;;;;;;5040096;28;20489;-60
2023/11/10 07:20:05;;;;;;;2.40;2.30;;;;;;;;;;5046858;28;20496;-61
2023/11/10 07:22:34;;;;;;;2.50;2.40;;;;;;;;;;5046539;28;20498;-63
2023/11/10 07:25:03;;;;;;;2.70;2.50;;;;;;;;;;5048321;28;20498;-62
2023/11/10 07:27:31;;;;;;;2.55;2.45;;;;;;;;;;5042740;28;20051;-62
2023/11/10 07:30:00;;;;;;;2.83;2.60;;;;;;;;;;5048510;28;20071;-62
2023/11/10 07:32:29;;;;;;;2.45;2.25;;;;;;;;;;5045295;28;20103;-60
2023/11/10 07:34:58;;;;;;;2.60;2.40;;;;;;;;;;5041775;28;20275;-60
2023/11/10 07:37:34;;;;;;;2.70;2.60;;;;;;;;;;5041336;28;20049;-59
2023/11/10 07:40:04;;;;;;;2.22;2.13;;;;;;;;;;5039329;28;20107;-59
2023/11/10 07:42:33;;;;;;;2.58;2.40;;;;;;;;;;5039669;28;20056;-60
2023/11/10 07:45:01;;;;;;;2.67;2.50;;;;;;;;;;5048183;28;20053;-62
2023/11/10 07:47:30;;;;;;;2.35;2.25;;;;;;;;;;5047023;28;20052;-61
2023/11/10 07:49:59;;;;;;;4.20;2.35;;;;;;;;;;5039306;28;20044;-60
2023/11/10 07:52:28;;;;;;;2.40;2.30;;;;;;;;;;5031773;28;20415;-60
2023/11/10 07:54:58;;;;;;;2.75;2.30;;;;;;;;;;5047763;28;20050;-62
2023/11/10 07:57:28;;;;;;;2.30;2.20;;;;;;;;;;5045004;28;20052;-61
2023/11/10 07:59:57;;;;;;;2.10;2.00;;;;;;;;;;5038306;28;20433;-61
2023/11/10 08:02:25;;;;;;;2.30;2.20;;;;;;;;;;5043996;28;20136;-59
2023/11/10 08:04:54;;;;;;;2.15;2.05;;;;;;;;;;5046295;28;20041;-61
2023/11/10 08:07:24;;;;;;;2.63;2.42;;;;;;;;;;5041654;28;20041;-60
2023/11/10 08:09:52;;;;;;;2.33;2.22;;;;;;;;;;5046243;28;20068;-63
2023/11/10 08:12:22;;;;;;;2.85;2.65;;;;;;;;;;5043191;28;20053;-63
2023/11/10 08:14:51;;;;;;;2.47;2.30;;;;;;;;;;5038608;28;20053;-60
2023/11/10 08:17:20;;;;;;;2.50;2.40;;;;;;;;;;5034879;28;20045;-60
2023/11/10 08:19:48;;;;;;;2.05;1.95;;;;;;;;;;5047393;28;20103;-60
2023/11/10 08:22:16;;;;;;;2.20;2.00;;;;;;;;;;5047475;28;20095;-61
2023/11/10 08:24:45;;;;;;;2.00;1.90;;;;;;;;;;5045132;28;20139;-62
2023/11/10 08:27:13;;;;;;;2.10;2.00;;;;;;;;;;5047666;28;20057;-59
2023/11/10 08:29:44;;;;;;;1.90;1.80;;;;;;;;;;5043899;28;20069;-61
2023/11/10 08:32:12;;;;;;;2.20;2.10;;;;;;;;;;5046062;28;20073;-60
2023/11/10 08:34:41;;;;;;;1.90;1.80;;;;;;;;;;5046202;28;20049;-67
2023/11/10 08:37:09;;;;;;;2.03;1.92;;;;;;;;;;5043869;28;20106;-63
2023/11/10 08:39:38;;;;;;;1.70;1.70;;;;;;;;;;5046034;28;20520;-60
2023/11/10 08:42:08;;;;;;;2.10;2.00;;;;;;;;;;5049333;28;20057;-63
2023/11/10 08:44:37;;;;;;;1.80;1.70;;;;;;;;;;5041301;28;20456;-63
2023/11/10 08:47:07;;;;;;;1.70;1.70;;;;;;;;;;5042834;28;20045;-68
2023/11/10 08:49:37;;;;;;;1.73;1.73;;;;;;;;;;5038543;28;20145;-61
2023/11/10 08:52:06;;;;;;;1.80;1.70;;;;;;;;;;5042651;28;20048;-61
2023/11/10 08:54:34;;;;;;;2.03;1.92;;;;;;;;;;5049477;28;20060;-60
2023/11/10 08:57:03;;;;;;;1.90;1.80;;;;;;;;;;5044854;28;20061;-59
2023/11/10 08:59:31;;;;;;;1.73;1.63;;;;;;;;;;5040945;28;20052;-61
2023/11/10 09:02:00;;;;;;;2.15;1.98;;;;;;;;;;5050291;28;20112;-60
2023/11/10 09:04:30;;;;;;;1.88;1.88;;;;;;;;;;5050534;28;20076;-63
2023/11/10 09:06:58;;;;;;;2.13;2.03;;;;;;;;;;5045899;28;20049;-62
2023/11/10 09:09:28;;;;;;;2.05;1.95;;;;;;;;;;5050319;28;20048;-66
2023/11/10 09:11:57;;;;;;;1.60;1.60;;;;;;;;;;5045379;28;20045;-62
2023/11/10 09:14:26;;;;;;;2.10;2.00;;;;;;;;;;5044405;28;20136;-66
2023/11/10 09:16:55;;;;;;;1.60;1.60;;;;;;;;;;5046566;28;20073;-62
2023/11/10 09:19:24;;;;;;;1.70;1.70;;;;;;;;;;5050422;28;20049;-62
2023/11/10 09:21:53;;;;;;;1.70;1.70;;;;;;;;;;5051306;28;20068;-61
2023/11/10 09:24:22;;;;;;;1.65;1.65;;;;;;;;;;5050367;28;20070;-59
2023/11/10 09:26:50;;;;;;;1.50;1.50;;;;;;;;;;5050779;28;20075;-61
2023/11/10 09:29:19;;;;;;;1.70;1.60;;;;;;;;;;5048902;28;20552;-62
2023/11/10 09:31:47;;;;;;;1.90;1.80;;;;;;;;;;5039587;28;20045;-62
2023/11/10 09:34:16;;;;;;;1.85;1.80;;;;;;;;;;5046081;28;20520;-62
2023/11/10 09:36:44;;;;;;;1.90;1.80;;;;;;;;;;5046786;28;20107;-62
2023/11/10 09:39:15;;;;;;;2.05;1.85;;;;;;;;;;5049158;28;20145;-62
2023/11/10 09:41:48;;;;;;;1.70;1.60;;;;;;;;;;5037167;28;20064;-60
2023/11/10 09:44:16;;;;;;;1.98;1.88;;;;;;;;;;5042530;28;20100;-60
2023/11/10 09:46:47;;;;;;;1.60;1.50;;;;;;;;;;5048285;28;20049;-61
2023/11/10 09:49:17;;;;;;;2.08;1.98;;;;;;;;;;5045499;28;20533;-63
2023/11/10 09:51:46;;;;;;;1.90;1.90;;;;;;;;;;5049991;28;20073;-63
2023/11/10 09:54:16;;;;;;;1.70;1.70;;;;;;;;;;5049184;28;20107;-61
2023/11/10 09:56:46;;;;;;;1.98;1.80;;;;;;;;;;5050101;28;20049;-64
2023/11/10 09:59:15;;;;;;;1.80;1.70;;;;;;;;;;5049831;28;20056;-63
2023/11/10 10:01:44;;;;;;;1.80;1.80;;;;;;;;;;5049800;28;20057;-62
2023/11/10 10:04:13;;;;;;;2.10;2.00;;;;;;;;;;5049518;28;20441;-61
2023/11/10 10:06:41;;;;;;;1.75;1.70;;;;;;;;;;5039151;28;20057;-63
2023/11/10 10:09:10;;;;;;;1.90;1.80;;;;;;;;;;5045424;28;20045;-65
2023/11/10 10:11:41;;;;;;;1.60;1.60;;;;;;;;;;5044588;28;20052;-62
2023/11/10 10:14:11;;;;;;;1.83;1.73;;;;;;;;;;5042406;28;20098;-65
2023/11/10 10:16:39;;;;;;;1.70;1.70;;;;;;;;;;5039560;28;20053;-65
2023/11/10 10:19:09;;;;;;;1.80;1.70;;;;;;;;;;5047092;28;20055;-65
2023/11/10 10:21:41;;;;;;;1.80;1.65;;;;;;;;;;5046987;28;20506;-65
2023/11/10 10:24:10;;;;;;;1.95;1.85;;;;;;;;;;5045730;28;20067;-69
2023/11/10 10:26:41;;;;;;;1.80;1.70;;;;;;;;;;5049129;28;20041;-65
2023/11/10 10:29:10;;;;;;;2.05;1.95;;;;;;;;;;5036654;28;20060;-64
2023/11/10 10:31:39;;;;;;;1.88;1.75;;;;;;;;;;5046455;28;20049;-66
2023/11/10 10:34:07;;;;;;;1.70;1.70;;;;;;;;;;5044677;28;20537;-62
2023/11/10 10:36:38;;;;;;;1.90;1.90;;;;;;;;;;5049626;28;20099;-63
2023/11/10 10:39:10;;;;;;;1.67;1.67;;;;;;;;;;5046648;28;20098;-67
2023/11/10 10:41:39;;;;;;;1.80;1.70;;;;;;;;;;5046283;28;20060;-64
2023/11/10 10:44:09;;;;;;;1.85;1.75;;;;;;;;;;5047511;28;20049;-63
2023/11/10 10:46:39;;;;;;;1.60;1.60;;;;;;;;;;5049919;28;20473;-65
2023/11/10 10:49:12;;;;;;;1.50;1.50;;;;;;;;;;5047740;28;20140;-67
2023/11/10 10:51:40;;;;;;;1.67;1.67;;;;;;;;;;5048232;28;20049;-64
2023/11/10 10:54:10;;;;;;;1.60;1.60;;;;;;;;;;5043661;28;20060;-65
2023/11/10 10:56:39;;;;;;;1.80;1.70;;;;;;;;;;5040012;28;20465;-64
2023/11/10 10:59:15;;;;;;;1.80;1.70;;;;;;;;;;5047528;28;20579;-65
2023/11/10 11:01:44;;;;;;;1.80;1.70;;;;;;;;;;5046453;28;20045;-65
2023/11/10 11:04:25;;;;;;;1.90;1.80;;;;;;;;;;5040453;28;20572;-65
2023/11/10 11:07:03;;;;;;;1.90;1.80;;;;;;;;;;5047688;28;20056;-63
2023/11/10 11:09:41;;;;;;;1.65;1.65;;;;;;;;;;5041520;28;20058;-66
2023/11/10 11:12:15;;;;;;;1.70;1.70;;;;;;;;;;5039109;28;20052;-65
2023/11/10 11:14:50;;;;;;;1.63;1.63;;;;;;;;;;5041086;28;20125;-64
2023/11/10 11:17:19;;;;;;;;;;;;;;;;;;5044223;28;20053;-66
2023/11/10 11:19:48;;;;;;;1.60;1.60;;;;;;;;;;5045995;28;19928;-68
2023/11/10 11:22:16;;;;;;;1.70;1.60;;;;;;;;;;5040579;28;20053;-65
2023/11/10 11:24:45;;;;;;;1.80;1.70;;;;;;;;;;5044296;28;20420;-66
2023/11/10 11:27:21;;;;;;;1.55;1.50;;;;;;;;;;5047931;28;20493;-66
2023/11/10 11:29:57;;;;;;;1.52;1.52;;;;;;;;;;5042923;28;20049;-65
2023/11/10 11:32:30;;;;;;;1.67;1.67;;;;;;;;;;5029881;28;20045;-64
2023/11/10 11:34:59;;;;;;;1.50;1.50;;;;;;;;;;5035344;28;20649;-65
2023/11/10 11:37:31;;;;;;;1.42;1.42;;;;;;;;;;5040486;28;20075;-65
2023/11/10 11:40:00;;;;;;;1.60;1.60;;;;;;;;;;5046334;28;20375;-67
2023/11/10 11:42:36;;;;;;;1.63;1.55;;;;;;;;;;5032905;28;20556;-66
2023/11/10 11:45:13;;;;;;;1.63;1.60;;;;;;;;;;5047419;28;20049;-67
2023/11/10 11:47:41;;;;;;;1.70;1.60;;;;;;;;;;5046635;28;20518;-69
2023/11/10 11:50:11;;;;;;;1.67;1.67;;;;;;;;;;5047305;28;20049;-67
2023/11/10 11:52:40;;;;;;;1.60;1.60;;;;;;;;;;5047722;28;20048;-65
2023/11/10 11:55:09;;;;;;;1.70;1.60;;;;;;;;;;5046140;28;20041;-65
2023/11/10 11:57:38;;;;;;;2.00;1.90;;;;;;;;;;5036120;28;20041;-70
2023/11/10 12:00:08;;;;;;;1.60;1.60;;;;;;;;;;5042129;28;20136;-67
2023/11/10 12:02:40;;;;;;;1.73;1.73;;;;;;;;;;5043801;28;20041;-69
2023/11/10 12:05:12;;;;;;;1.75;1.75;;;;;;;;;;5045364;28;20075;-65
2023/11/10 12:07:42;;;;;;;1.50;1.50;;;;;;;;;;5046681;28;20467;-65
2023/11/10 12:10:12;;;;;;;1.80;1.77;;;;;;;;;;5047614;28;20076;-66
2023/11/10 12:12:41;;;;;;;1.60;1.60;;;;;;;;;;5041420;28;20056;-65
2023/11/10 12:15:10;;;;;;;1.88;1.80;;;;;;;;;;5039610;28;20468;-66
2023/11/10 12:17:40;;;;;;;1.83;1.73;;;;;;;;;;5046253;28;20466;-65
2023/11/10 12:20:09;;;;;;;1.80;1.70;;;;;;;;;;5044676;28;20044;-65
2023/11/10 12:22:38;;;;;;;1.80;1.77;;;;;;;;;;5045357;28;20040;-65
2023/11/10 12:25:10;;;;;;;2.00;1.90;;;;;;;;;;5046847;28;20056;-66
2023/11/10 12:27:39;;;;;;;1.70;1.70;;;;;;;;;;5045323;28;20457;-64
2023/11/10 12:30:08;;;;;;;1.70;1.70;;;;;;;;;;5045767;28;20126;-69
2023/11/10 12:32:41;;;;;;;1.90;1.80;;;;;;;;;;5044085;28;20043;-67
2023/11/10 12:35:13;;;;;;;1.80;1.70;;;;;;;;;;5043040;28;20091;-66
2023/11/10 12:37:43;;;;;;;2.00;1.90;;;;;;;;;;5036530;28;20053;-67
2023/11/10 12:40:13;;;;;;;2.00;1.90;;;;;;;;;;5045189;28;20128;-64
2023/11/10 12:42:42;;;;;;;1.70;1.70;;;;;;;;;;5040994;28;20107;-63
2023/11/10 12:45:11;;;;;;;1.83;1.73;;;;;;;;;;5040808;28;20048;-65
2023/11/10 12:47:40;;;;;;;1.80;1.70;;;;;;;;;;5043279;28;20457;-65
2023/11/10 12:50:13;;;;;;;1.83;1.73;;;;;;;;;;5031482;28;20115;-66
2023/11/10 12:52:41;;;;;;;2.00;1.90;;;;;;;;;;5041877;28;20045;-68
2023/11/10 12:55:10;;;;;;;1.88;1.77;;;;;;;;;;5035029;28;20044;-65
2023/11/10 12:57:39;;;;;;;2.10;2.00;;;;;;;;;;5046070;28;20045;-67
2023/11/10 13:00:13;;;;;;;2.13;2.00;;;;;;;;;;5040884;28;20049;-68
2023/11/10 13:02:41;;;;;;;1.90;1.80;;;;;;;;;;5042924;28;20712;-65
2023/11/10 13:05:14;;;;;;;1.80;1.80;;;;;;;;;;5044468;28;20406;-66
2023/11/10 13:07:44;;;;;;;1.88;1.77;;;;;;;;;;5044407;28;20045;-65
2023/11/10 13:10:12;;;;;;;1.90;1.80;;;;;;;;;;5045353;28;20418;-65
2023/11/10 13:12:41;;;;;;;1.70;1.70;;;;;;;;;;5043766;28;20048;-66
2023/11/10 13:15:10;;;;;;;1.60;1.60;;;;;;;;;;5043263;28;20045;-64
2023/11/10 13:17:38;;;;;;;2.08;1.98;;;;;;;;;;5046430;28;20053;-64
2023/11/10 13:20:10;;;;;;;1.73;1.73;;;;;;;;;;5044708;28;20064;-66
2023/11/10 13:22:40;;;;;;;1.98;1.88;;;;;;;;;;5044165;28;20052;-64
2023/11/10 13:25:09;;;;;;;2.00;1.90;;;;;;;;;;5045220;28;20057;-65
2023/11/10 13:27:37;;;;;;;1.80;1.80;;;;;;;;;;5039391;28;20597;-64
2023/11/10 13:30:07;;;;;;;1.90;1.80;;;;;;;;;;5044829;28;20480;-66
2023/11/10 13:32:36;;;;;;;2.05;1.95;;;;;;;;;;5047845;28;20056;-65
2023/11/10 13:35:08;;;;;;;1.80;1.80;;;;;;;;;;5044372;28;20179;-65
2023/11/10 13:37:36;;;;;;;1.92;1.85;;;;;;;;;;5047686;28;20045;-66
2023/11/10 13:40:12;;;;;;;1.92;1.90;;;;;;;;;;5045890;28;20590;-67
2023/11/10 13:42:41;;;;;;;1.70;1.70;;;;;;;;;;5045852;28;20053;-65
2023/11/10 13:45:11;;;;;;;1.70;1.65;;;;;;;;;;5045365;28;20064;-66
2023/11/10 13:47:40;;;;;;;1.85;1.80;;;;;;;;;;5043700;28;20052;-65
2023/11/10 13:50:10;;;;;;;1.60;1.60;;;;;;;;;;5040181;28;20535;-65
2023/11/10 13:52:39;;;;;;;1.83;1.75;;;;;;;;;;5043554;28;20141;-64
2023/11/10 13:55:10;;;;;;;1.90;1.80;;;;;;;;;;5045869;28;20053;-64
2023/11/10 13:57:41;;;;;;;1.73;1.63;;;;;;;;;;5039807;28;20102;-65
2023/11/10 14:00:12;;;;;;;1.80;1.70;;;;;;;;;;5037784;28;20351;-65
2023/11/10 14:02:42;;;;;;;1.90;1.80;;;;;;;;;;5047349;28;20140;-64
2023/11/10 14:05:11;;;;;;;2.00;1.80;;;;;;;;;;5041435;28;20051;-67
2023/11/10 14:07:40;;;;;;;1.60;1.60;;;;;;;;;;5047067;28;20395;-66
2023/11/10 14:10:12;;;;;;;2.55;1.63;;;;;;;;;;5046582;28;20061;-65
2023/11/10 14:12:41;;;;;;;1.75;1.70;;;;;;;;;;5042188;28;20045;-66
2023/11/10 14:15:12;;;;;;;1.73;1.63;;;;;;;;;;5038860;28;20049;-65
2023/11/10 14:17:41;;;;;;;1.60;1.60;;;;;;;;;;5042391;28;20045;-66
2023/11/10 14:20:10;;;;;;;1.70;1.60;;;;;;;;;;5040175;28;20499;-65
2023/11/10 14:22:39;;;;;;;1.80;1.70;;;;;;;;;;5042050;28;20140;-67
2023/11/10 14:25:08;;;;;;;1.50;1.50;;;;;;;;;;5043605;28;20494;-66
2023/11/10 14:27:38;;;;;;;1.58;1.58;;;;;;;;;;5041408;28;20053;-67
2023/11/10 14:30:07;;;;;;;1.60;1.60;;;;;;;;;;5042202;28;20154;-68
2023/11/10 14:32:38;;;;;;;1.70;1.60;;;;;;;;;;5038845;28;20094;-67
2023/11/10 14:35:10;;;;;;;1.65;1.65;;;;;;;;;;5042821;28;20131;-66
2023/11/10 14:37:40;;;;;;;2.00;1.83;;;;;;;;;;5042384;28;20080;-64
2023/11/10 14:40:16;;;;;;;1.60;1.60;;;;;;;;;;5037774;28;20060;-65
2023/11/10 14:42:49;;;;;;;1.80;1.70;;;;;;;;;;5046321;28;20075;-64
2023/11/10 14:45:21;;;;;;;1.50;1.50;;;;;;;;;;5044826;28;20052;-66
2023/11/10 14:47:51;;;;;;;1.60;1.60;;;;;;;;;;5045376;28;20174;-64
2023/11/10 14:50:34;;;;;;;1.55;1.55;;;;;;;;;;5038036;28;20133;-65
2023/11/10 14:53:06;;;;;;;1.50;1.50;;;;;;;;;;5040918;28;20099;-65
2023/11/10 14:55:35;;;;;;;1.75;1.65;;;;;;;;;;5046711;28;20051;-65